Weather at Leonardo da Vinci–Fiumicino Airport

Public forecast

Using degrees Celsius for public forecast. Weather courtesy of forecast.io.

Current aviation weather report (METAR) for Leonardo da Vinci–Fiumicino Airport

Retrieved 2021/07/29 01:50 UTC (34 minutes ago):

LIRF 290150Z 09004KT CAVOK 21/13 Q1013 NOSIG

Aviation forecast (TAF) for Leonardo da Vinci–Fiumicino Airport

Retrieved 2021-07-29 00:00 UTC (2 hours ago):

TAF LIRF 282300Z 2900/3006 VRB05KT CAVOK BECMG 2908/2910 24012KT BECMG 2918/2920 VRB05KT